createdAt,value
2019-02-18T00:01:02.551Z,49.85
2019-02-18T00:03:35.663Z,49.93
2019-02-18T00:06:10.154Z,50.16
2019-02-18T00:08:43.784Z,50.42
2019-02-18T00:11:21.278Z,50.70
2019-02-18T00:13:56.954Z,50.93
2019-02-18T00:16:31.354Z,51.22
2019-02-18T00:19:04.064Z,51.68
2019-02-18T00:21:36.935Z,52.48
2019-02-18T00:24:09.483Z,52.78
2019-02-18T00:26:42.574Z,53.49
2019-02-18T00:29:17.829Z,53.79
2019-02-18T00:31:50.332Z,53.86
2019-02-18T00:34:23.970Z,53.82
2019-02-18T00:36:58.000Z,53.68
2019-02-18T00:39:30.633Z,53.63
2019-02-18T00:42:04.131Z,53.30
2019-02-18T00:44:37.052Z,53.12
2019-02-18T00:47:09.658Z,53.15
2019-02-18T00:49:42.166Z,53.18
2019-02-18T00:52:16.029Z,53.39
2019-02-18T00:54:48.834Z,53.20
2019-02-18T00:57:21.638Z,53.25
2019-02-18T00:59:54.571Z,53.16
2019-02-18T01:02:27.195Z,52.83
2019-02-18T01:05:00.760Z,52.53
2019-02-18T01:07:36.895Z,52.32
2019-02-18T01:10:12.069Z,51.99
2019-02-18T01:12:44.655Z,51.78
2019-02-18T01:15:17.045Z,51.85
2019-02-18T01:17:49.585Z,51.94
2019-02-18T01:20:21.969Z,51.89
2019-02-18T01:22:55.470Z,51.86
2019-02-18T01:25:28.185Z,52.20
2019-02-18T01:28:00.747Z,52.46
2019-02-18T01:30:33.750Z,52.55
2019-02-18T01:33:06.283Z,52.90
2019-02-18T01:35:38.871Z,52.97
2019-02-18T01:38:11.603Z,53.32
2019-02-18T01:40:44.265Z,53.62
2019-02-18T01:43:17.664Z,53.87
2019-02-18T01:45:54.531Z,53.93
2019-02-18T01:48:28.073Z,54.12
2019-02-18T01:51:00.763Z,54.44
2019-02-18T01:53:33.594Z,54.57
2019-02-18T01:56:06.233Z,55.19
2019-02-18T01:58:39.081Z,55.23
2019-02-18T02:01:11.994Z,55.60
2019-02-18T02:03:44.596Z,55.65
2019-02-18T02:06:17.882Z,55.57
2019-02-18T02:08:51.766Z,55.40
2019-02-18T02:11:24.345Z,55.08
2019-02-18T02:13:56.953Z,54.90
2019-02-18T02:16:31.819Z,54.67
2019-02-18T02:19:04.418Z,54.70
2019-02-18T02:21:37.168Z,54.76
2019-02-18T02:24:11.308Z,54.98
2019-02-18T02:26:44.511Z,55.02
2019-02-18T02:29:17.012Z,55.05
2019-02-18T02:31:49.964Z,55.03
2019-02-18T02:34:23.075Z,54.94
2019-02-18T02:36:56.597Z,54.87
2019-02-18T02:39:29.743Z,54.87
2019-02-18T02:42:04.265Z,55.11
2019-02-18T02:44:36.960Z,55.14
2019-02-18T02:47:10.776Z,55.26
2019-02-18T02:49:43.366Z,55.59
2019-02-18T02:52:16.591Z,55.68
2019-02-18T02:54:49.352Z,55.73
2019-02-18T02:57:21.941Z,55.88
2019-02-18T02:59:54.478Z,56.30
2019-02-18T03:02:27.731Z,56.69
2019-02-18T03:05:00.474Z,57.08
2019-02-18T03:07:33.036Z,57.50
2019-02-18T03:10:06.475Z,57.81
2019-02-18T03:12:39.523Z,57.97
2019-02-18T03:15:14.862Z,58.89
2019-02-18T03:17:47.847Z,59.12
2019-02-18T03:20:20.763Z,59.99
2019-02-18T03:22:53.421Z,60.32
2019-02-18T03:25:28.789Z,60.40
2019-02-18T03:28:13.593Z,60.79
2019-02-18T03:31:01.976Z,61.15
2019-02-18T03:33:45.360Z,61.82
2019-02-18T03:36:17.952Z,61.72
2019-02-18T03:38:52.036Z,62.23
2019-02-18T03:41:24.547Z,62.14
2019-02-18T03:43:57.077Z,62.94
2019-02-18T03:46:31.893Z,63.05
2019-02-18T03:49:04.510Z,62.96
2019-02-18T03:51:37.056Z,62.92
2019-02-18T03:54:10.237Z,62.89
2019-02-18T03:56:42.677Z,62.36
2019-02-18T03:59:15.215Z,62.43
2019-02-18T04:01:49.260Z,62.93
2019-02-18T04:04:21.893Z,63.79
2019-02-18T04:06:54.422Z,64.00
2019-02-18T04:09:27.294Z,64.32
2019-02-18T04:11:59.896Z,64.36
2019-02-18T04:14:33.789Z,64.81
2019-02-18T04:17:06.991Z,65.07
2019-02-18T04:19:40.476Z,65.25
2019-02-18T04:22:13.151Z,65.77
2019-02-18T04:24:46.112Z,65.53
2019-02-18T04:27:18.626Z,65.52
2019-02-18T04:29:51.448Z,65.89
2019-02-18T04:32:24.302Z,66.27
2019-02-18T04:34:56.769Z,65.94
2019-02-18T04:37:29.444Z,66.30
2019-02-18T04:40:02.428Z,66.18
2019-02-18T04:42:35.621Z,66.47
2019-02-18T04:45:09.210Z,66.37
2019-02-18T04:47:44.467Z,66.33
2019-02-18T04:50:17.143Z,66.41
2019-02-18T04:52:49.523Z,66.38
2019-02-18T04:55:23.450Z,66.44
2019-02-18T04:57:56.068Z,66.47
2019-02-18T05:00:29.786Z,65.95
2019-02-18T05:03:03.156Z,65.82
2019-02-18T05:05:36.460Z,65.89
2019-02-18T05:08:08.978Z,65.92
2019-02-18T05:10:43.646Z,66.23
2019-02-18T05:13:16.226Z,66.34
2019-02-18T05:15:50.010Z,66.19
2019-02-18T05:18:23.695Z,66.06
2019-02-18T05:20:56.677Z,65.98
2019-02-18T05:23:29.189Z,66.04
2019-02-18T05:26:03.809Z,66.02
2019-02-18T05:28:36.858Z,65.64
2019-02-18T05:31:09.364Z,65.21
2019-02-18T05:33:43.270Z,65.42
2019-02-18T05:36:15.814Z,65.89
2019-02-18T05:38:48.306Z,65.46
2019-02-18T05:41:21.809Z,65.05
2019-02-18T05:43:55.026Z,64.53
2019-02-18T05:46:29.090Z,63.88
2019-02-18T05:49:03.191Z,63.83
2019-02-18T05:51:35.986Z,63.52
2019-02-18T05:54:08.476Z,62.87
2019-02-18T05:56:41.316Z,62.28
2019-02-18T05:59:13.908Z,61.96
2019-02-18T06:01:47.478Z,61.25
2019-02-18T06:04:21.139Z,60.67
2019-02-18T06:06:53.772Z,60.08
2019-02-18T06:09:30.178Z,59.44
2019-02-18T06:12:04.644Z,59.02
2019-02-18T06:14:37.026Z,58.78
2019-02-18T06:17:09.632Z,58.53
2019-02-18T06:19:43.002Z,58.39
2019-02-18T06:22:15.679Z,58.31
2019-02-18T06:24:50.264Z,58.34
2019-02-18T06:27:23.290Z,58.78
2019-02-18T06:29:56.226Z,59.30
2019-02-18T06:32:30.504Z,60.06
2019-02-18T06:35:04.223Z,60.67
2019-02-18T06:37:37.202Z,60.94
2019-02-18T06:40:10.429Z,60.96
2019-02-18T06:42:43.927Z,60.99
2019-02-18T06:45:31.559Z,60.68
2019-02-18T06:48:09.795Z,60.27
2019-02-18T06:50:43.059Z,60.11
2019-02-18T06:53:16.455Z,60.08
2019-02-18T06:55:49.019Z,60.14
2019-02-18T06:58:28.259Z,60.33
2019-02-18T07:01:06.263Z,60.69
2019-02-18T07:03:45.539Z,60.58
2019-02-18T07:06:38.721Z,60.35
2019-02-18T07:09:31.119Z,59.94
2019-02-18T07:12:09.818Z,59.37
2019-02-18T07:14:42.783Z,58.92
2019-02-18T07:17:19.162Z,58.37
2019-02-18T07:19:51.798Z,58.00
2019-02-18T07:22:26.042Z,57.74
2019-02-18T07:25:00.016Z,57.40
2019-02-18T07:27:32.406Z,56.91
2019-02-18T07:30:14.132Z,56.86
2019-02-18T07:32:47.289Z,56.63
2019-02-18T07:35:20.646Z,56.74
2019-02-18T07:37:53.453Z,56.61
2019-02-18T07:40:25.904Z,56.36
2019-02-18T07:42:58.561Z,56.06
2019-02-18T07:45:31.062Z,55.98
2019-02-18T07:48:03.926Z,55.83
2019-02-18T07:50:37.527Z,55.45
2019-02-18T07:53:20.541Z,55.24
2019-02-18T07:55:58.335Z,54.91
2019-02-18T07:58:32.210Z,54.66
2019-02-18T08:01:05.861Z,54.26
2019-02-18T08:03:38.388Z,54.12
2019-02-18T08:06:11.589Z,53.85
2019-02-18T08:08:44.396Z,53.83
2019-02-18T08:11:18.300Z,53.68
2019-02-18T08:13:52.208Z,53.66
2019-02-18T08:16:39.433Z,53.39
2019-02-18T08:19:19.692Z,53.35
2019-02-18T08:22:32.498Z,53.12
2019-02-18T08:25:13.073Z,53.05
2019-02-18T08:27:45.738Z,52.73
2019-02-18T08:30:19.342Z,52.86
2019-02-18T08:33:05.850Z,52.35
2019-02-18T08:35:40.294Z,51.69
2019-02-18T08:38:14.566Z,51.41
2019-02-18T08:40:47.431Z,51.09
2019-02-18T08:43:23.331Z,50.91
2019-02-18T08:45:56.189Z,50.69
2019-02-18T08:48:30.280Z,50.63
2019-02-18T08:51:13.574Z,50.42
2019-02-18T08:53:48.001Z,49.92
2019-02-18T08:56:22.263Z,49.95
2019-02-18T08:58:56.768Z,50.05
2019-02-18T09:01:48.027Z,49.72
2019-02-18T09:04:20.814Z,49.27
2019-02-18T09:06:56.785Z,49.19
2019-02-18T09:09:32.288Z,49.18
2019-02-18T09:12:06.538Z,48.46
2019-02-18T09:14:40.053Z,48.03
2019-02-18T09:17:17.238Z,48.05
2019-02-18T09:19:55.010Z,47.65
2019-02-18T09:22:48.299Z,47.42
2019-02-18T09:25:43.393Z,47.10
2019-02-18T09:28:19.071Z,46.95
2019-02-18T09:30:55.234Z,46.18
2019-02-18T09:33:27.835Z,45.81
2019-02-18T09:36:04.837Z,44.97
2019-02-18T09:38:37.757Z,43.29
2019-02-18T09:41:11.275Z,40.69
2019-02-18T09:43:44.077Z,39.39
2019-02-18T09:46:17.543Z,38.58
2019-02-18T09:48:50.780Z,38.00
2019-02-18T09:51:24.819Z,37.50
2019-02-18T09:53:58.079Z,37.52
2019-02-18T09:56:36.810Z,36.94
2019-02-18T09:59:12.373Z,36.39
2019-02-18T10:01:44.999Z,36.21
2019-02-18T10:04:19.174Z,35.65
2019-02-18T10:06:51.795Z,35.56
2019-02-18T10:09:25.879Z,35.89
2019-02-18T10:12:00.541Z,35.81
2019-02-18T10:14:34.987Z,35.80
2019-02-18T10:17:09.061Z,35.35
2019-02-18T10:19:47.805Z,35.53
2019-02-18T10:22:21.548Z,34.98
2019-02-18T10:24:57.468Z,34.94
2019-02-18T10:27:32.061Z,34.96
2019-02-18T10:30:07.214Z,34.72
2019-02-18T10:32:43.939Z,34.12
2019-02-18T10:35:17.310Z,33.65
2019-02-18T10:37:55.143Z,34.25
2019-02-18T10:40:29.015Z,34.14
2019-02-18T10:43:03.333Z,34.03
2019-02-18T10:45:37.448Z,33.85
2019-02-18T10:48:10.198Z,33.75
2019-02-18T10:50:42.843Z,33.62
2019-02-18T10:53:22.563Z,32.79
2019-02-18T10:55:59.824Z,32.96
2019-02-18T10:58:33.352Z,32.88
2019-02-18T11:01:07.364Z,32.47
2019-02-18T11:03:39.770Z,32.43
2019-02-18T11:06:12.342Z,32.28
2019-02-18T11:08:48.045Z,31.92
2019-02-18T11:11:20.558Z,32.15
2019-02-18T11:13:56.949Z,32.08
2019-02-18T11:16:30.048Z,32.01
2019-02-18T11:19:02.699Z,31.70
2019-02-18T11:21:35.407Z,30.79
2019-02-18T11:24:08.552Z,30.67
2019-02-18T11:26:41.924Z,30.86
2019-02-18T11:29:16.443Z,30.04
2019-02-18T11:31:48.980Z,30.59
2019-02-18T11:34:21.656Z,30.00
2019-02-18T11:36:55.134Z,29.95
2019-02-18T11:39:30.363Z,30.20
2019-02-18T11:42:03.494Z,30.56
2019-02-18T11:44:36.649Z,30.57
2019-02-18T11:47:11.140Z,30.27
2019-02-18T11:49:44.537Z,30.08
2019-02-18T11:52:17.253Z,30.09
2019-02-18T11:54:49.837Z,30.43
2019-02-18T11:57:22.330Z,30.04
2019-02-18T11:59:59.245Z,29.41
2019-02-18T12:02:31.818Z,28.27
2019-02-18T12:05:11.311Z,28.16
2019-02-18T12:07:46.746Z,28.76
2019-02-18T12:10:22.415Z,28.89
2019-02-18T12:12:55.997Z,29.34
2019-02-18T12:15:30.340Z,29.74
2019-02-18T12:18:05.146Z,29.47
2019-02-18T12:20:40.379Z,29.03
2019-02-18T12:23:13.387Z,29.79
2019-02-18T12:25:47.971Z,29.35
2019-02-18T12:28:22.274Z,28.70
2019-02-18T12:30:56.265Z,29.17
2019-02-18T12:33:31.628Z,29.48
2019-02-18T12:36:05.491Z,29.25
2019-02-18T12:38:41.153Z,29.15
2019-02-18T12:41:18.935Z,28.58
2019-02-18T12:43:51.989Z,28.72
2019-02-18T12:46:25.420Z,28.18
2019-02-18T12:48:58.572Z,28.19
2019-02-18T12:51:31.815Z,28.82
2019-02-18T12:54:06.084Z,28.86
2019-02-18T12:56:39.652Z,28.54
2019-02-18T12:59:12.252Z,28.76
2019-02-18T13:01:47.999Z,28.24
2019-02-18T13:04:22.220Z,28.46
2019-02-18T13:06:57.180Z,28.56
2019-02-18T13:09:31.311Z,28.16
2019-02-18T13:12:06.851Z,28.22
2019-02-18T13:14:41.311Z,27.74
2019-02-18T13:17:15.621Z,26.95
2019-02-18T13:19:50.698Z,26.09
2019-02-18T13:22:23.307Z,26.44
2019-02-18T13:24:56.596Z,26.32
2019-02-18T13:27:34.711Z,26.48
2019-02-18T13:30:13.659Z,26.31
2019-02-18T13:32:46.581Z,26.38
2019-02-18T13:35:21.642Z,26.34
2019-02-18T13:37:55.288Z,26.53
2019-02-18T13:40:28.102Z,26.54
2019-02-18T13:43:00.995Z,26.70
2019-02-18T13:45:33.454Z,26.63
2019-02-18T13:48:06.104Z,26.04
2019-02-18T13:50:38.618Z,26.01
2019-02-18T13:53:13.883Z,26.38
2019-02-18T13:55:47.478Z,26.07
2019-02-18T13:58:26.064Z,26.27
2019-02-18T14:00:58.777Z,26.42
2019-02-18T14:03:33.775Z,26.37
2019-02-18T14:06:06.676Z,26.46
2019-02-18T14:08:39.182Z,25.69
2019-02-18T14:11:13.758Z,25.42
2019-02-18T14:13:48.623Z,24.98
2019-02-18T14:16:21.781Z,25.54
2019-02-18T14:19:00.079Z,26.02
2019-02-18T14:21:35.239Z,26.02
2019-02-18T14:24:12.996Z,26.21
2019-02-18T14:26:48.052Z,26.42
2019-02-18T14:29:20.734Z,26.54
2019-02-18T14:31:54.913Z,26.88
2019-02-18T14:34:32.780Z,27.19
2019-02-18T14:37:07.219Z,27.19
2019-02-18T14:39:40.437Z,27.49
2019-02-18T14:42:14.480Z,27.59
2019-02-18T14:44:47.424Z,27.74
2019-02-18T14:47:23.964Z,27.37
2019-02-18T14:49:57.624Z,27.47
2019-02-18T14:52:31.434Z,27.57
2019-02-18T14:55:05.706Z,27.69
2019-02-18T14:57:38.845Z,28.01
2019-02-18T15:00:24.428Z,28.04
2019-02-18T15:03:02.660Z,27.74
2019-02-18T15:05:36.157Z,27.72
2019-02-18T15:08:11.330Z,27.16
2019-02-18T15:10:47.689Z,27.28
2019-02-18T15:13:34.486Z,27.44
2019-02-18T15:16:12.163Z,27.61
2019-02-18T15:18:44.834Z,27.96
2019-02-18T15:21:19.851Z,28.08
2019-02-18T15:23:54.050Z,28.34
2019-02-18T15:26:28.783Z,28.23
2019-02-18T15:29:01.854Z,28.45
2019-02-18T15:31:36.949Z,28.37
2019-02-18T15:34:10.756Z,28.22
2019-02-18T15:36:45.301Z,28.04
2019-02-18T15:39:18.697Z,27.51
2019-02-18T15:41:54.816Z,27.55
2019-02-18T15:44:33.571Z,27.65
2019-02-18T15:47:06.660Z,28.06
2019-02-18T15:49:41.969Z,28.17
2019-02-18T15:52:18.022Z,28.43
2019-02-18T15:55:03.400Z,28.39
2019-02-18T15:57:53.680Z,28.82
2019-02-18T16:00:29.881Z,28.50
2019-02-18T16:03:04.420Z,27.41
2019-02-18T16:05:39.196Z,26.25
2019-02-18T16:08:15.674Z,26.57
2019-02-18T16:10:56.419Z,26.94
2019-02-18T16:13:33.909Z,27.73
2019-02-18T16:16:07.322Z,28.68
2019-02-18T16:18:40.027Z,29.68
2019-02-18T16:21:13.263Z,30.45
2019-02-18T16:23:47.196Z,31.13
2019-02-18T16:26:20.982Z,31.68
2019-02-18T16:28:57.162Z,32.20
2019-02-18T16:31:30.610Z,32.76
2019-02-18T16:34:05.093Z,33.27
2019-02-18T16:36:40.435Z,33.62
2019-02-18T16:39:16.379Z,34.23
2019-02-18T16:41:50.587Z,35.00
2019-02-18T16:44:26.180Z,35.55
2019-02-18T16:46:59.818Z,36.15
2019-02-18T16:49:37.060Z,38.31
2019-02-18T16:52:13.671Z,37.13
2019-02-18T16:54:47.214Z,37.68
2019-02-18T16:57:22.723Z,37.40
2019-02-18T16:59:57.306Z,37.69
2019-02-18T17:02:44.021Z,38.00
2019-02-18T17:05:17.530Z,38.38
2019-02-18T17:07:56.411Z,38.68
2019-02-18T17:10:30.582Z,39.09
2019-02-18T17:13:11.095Z,39.69
2019-02-18T17:15:47.387Z,40.07
2019-02-18T17:18:22.039Z,40.65
2019-02-18T17:20:55.533Z,40.83
2019-02-18T17:23:29.824Z,41.73
2019-02-18T17:26:02.540Z,42.31
2019-02-18T17:28:36.572Z,42.89
2019-02-18T17:31:09.404Z,43.28
2019-02-18T17:33:46.599Z,43.75
2019-02-18T17:36:24.988Z,44.27
2019-02-18T17:39:05.040Z,44.69
2019-02-18T17:41:46.367Z,44.99
2019-02-18T17:44:21.227Z,45.48
2019-02-18T17:46:56.112Z,45.83
2019-02-18T17:49:30.551Z,46.08
2019-02-18T17:52:03.084Z,46.16
2019-02-18T17:54:41.389Z,46.48
2019-02-18T17:57:19.564Z,46.81
2019-02-18T17:59:52.145Z,46.98
2019-02-18T18:02:30.314Z,47.21
2019-02-18T18:05:08.631Z,47.68
2019-02-18T18:07:42.683Z,47.76
2019-02-18T18:10:20.071Z,48.09
2019-02-18T18:12:56.713Z,48.46
2019-02-18T18:15:35.175Z,48.72
2019-02-18T18:18:08.619Z,48.78
2019-02-18T18:20:44.758Z,48.99
2019-02-18T18:23:21.227Z,49.16
2019-02-18T18:26:04.927Z,49.57
2019-02-18T18:28:39.037Z,49.79
2019-02-18T18:31:12.250Z,50.08
2019-02-18T18:33:45.924Z,49.99
2019-02-18T18:36:21.660Z,50.29
2019-02-18T18:39:04.895Z,50.60
2019-02-18T18:41:42.212Z,50.75
2019-02-18T18:44:15.693Z,50.80
2019-02-18T18:46:50.249Z,51.16
2019-02-18T18:49:30.912Z,51.31
2019-02-18T18:52:05.076Z,51.49
2019-02-18T18:54:39.223Z,52.11
2019-02-18T18:57:13.474Z,52.25
2019-02-18T18:59:58.304Z,52.35
2019-02-18T19:02:31.680Z,52.55
2019-02-18T19:05:08.327Z,52.55
2019-02-18T19:07:43.720Z,52.66
2019-02-18T19:10:25.336Z,52.62
2019-02-18T19:13:00.705Z,52.70
2019-02-18T19:15:34.388Z,53.04
2019-02-18T19:18:10.211Z,53.21
2019-02-18T19:20:45.533Z,53.53
2019-02-18T19:23:22.771Z,53.70
2019-02-18T19:26:01.655Z,53.84
2019-02-18T19:28:36.728Z,54.04
2019-02-18T19:31:13.277Z,54.28
2019-02-18T19:33:47.014Z,54.40
2019-02-18T19:36:45.321Z,54.79
2019-02-18T19:39:47.980Z,55.08
2019-02-18T19:42:31.636Z,55.33
2019-02-18T19:45:13.456Z,55.72
2019-02-18T19:47:51.998Z,56.00
2019-02-18T19:50:26.393Z,56.26
2019-02-18T19:53:01.811Z,56.35
2019-02-18T19:55:50.719Z,56.53
2019-02-18T19:58:36.779Z,56.66
2019-02-18T20:01:11.433Z,56.71
2019-02-18T20:03:46.598Z,56.60
2019-02-18T20:06:30.354Z,56.83
2019-02-18T20:09:12.871Z,57.14
2019-02-18T20:11:49.606Z,57.20
2019-02-18T20:14:31.526Z,57.58
2019-02-18T20:17:09.711Z,57.88
2019-02-18T20:19:44.815Z,58.02
2019-02-18T20:22:21.679Z,58.29
2019-02-18T20:24:55.706Z,58.70
2019-02-18T20:27:30.462Z,58.79
2019-02-18T20:30:12.718Z,58.69
2019-02-18T20:32:45.626Z,58.89
2019-02-18T20:35:24.008Z,59.17
2019-02-18T20:37:57.595Z,59.13
2019-02-18T20:40:31.654Z,58.96
2019-02-18T20:43:06.701Z,59.04
2019-02-18T20:45:39.979Z,59.12
2019-02-18T20:48:13.865Z,59.27
2019-02-18T20:50:49.688Z,59.28
2019-02-18T20:53:24.949Z,59.29
2019-02-18T20:55:57.679Z,59.54
2019-02-18T20:58:33.569Z,59.60
2019-02-18T21:01:07.588Z,59.91
2019-02-18T21:03:42.886Z,60.14
2019-02-18T21:06:23.874Z,60.21
2019-02-18T21:09:00.656Z,60.34
2019-02-18T21:11:34.039Z,60.50
2019-02-18T21:14:06.672Z,60.52
2019-02-18T21:16:39.498Z,60.54
2019-02-18T21:19:12.201Z,60.56
2019-02-18T21:21:51.724Z,60.52
2019-02-18T21:24:28.735Z,60.58
2019-02-18T21:27:02.843Z,60.50
2019-02-18T21:29:43.895Z,60.56
2019-02-18T21:32:25.179Z,60.52
2019-02-18T21:34:57.791Z,60.71
2019-02-18T21:37:31.974Z,60.88
2019-02-18T21:40:06.210Z,61.27
2019-02-18T21:42:39.057Z,61.49
2019-02-18T21:45:20.337Z,61.65
2019-02-18T21:47:55.460Z,61.77
2019-02-18T21:50:29.143Z,61.94
2019-02-18T21:53:02.847Z,62.21
2019-02-18T21:55:44.747Z,62.13
2019-02-18T21:58:19.603Z,62.30
2019-02-18T22:00:55.836Z,62.54
2019-02-18T22:03:30.415Z,62.29
2019-02-18T22:06:04.055Z,62.34
2019-02-18T22:08:37.573Z,62.26
2019-02-18T22:11:14.450Z,62.29
2019-02-18T22:13:49.971Z,62.35
2019-02-18T22:16:42.598Z,62.40
2019-02-18T22:19:18.342Z,62.46
2019-02-18T22:21:51.541Z,62.63
2019-02-18T22:24:26.311Z,62.59
2019-02-18T22:26:59.817Z,62.49
2019-02-18T22:29:34.513Z,62.36
2019-02-18T22:32:07.548Z,62.14
2019-02-18T22:34:41.364Z,62.10
2019-02-18T22:37:15.571Z,62.19
2019-02-18T22:39:50.163Z,62.27
2019-02-18T22:42:22.751Z,62.57
2019-02-18T22:44:55.651Z,62.69
2019-02-18T22:47:28.734Z,62.93
2019-02-18T22:50:01.532Z,63.07
2019-02-18T22:52:34.175Z,63.08
2019-02-18T22:55:07.989Z,63.05
2019-02-18T22:57:40.474Z,62.97
2019-02-18T23:00:55.945Z,62.82
2019-02-18T23:03:30.432Z,62.50
2019-02-18T23:06:05.872Z,62.41
2019-02-18T23:08:48.946Z,62.61
2019-02-18T23:11:21.753Z,62.66
2019-02-18T23:13:55.091Z,62.41
2019-02-18T23:16:29.127Z,62.35
2019-02-18T23:19:03.336Z,62.50
2019-02-18T23:21:36.622Z,62.64
2019-02-18T23:24:10.098Z,62.64
2019-02-18T23:26:44.810Z,62.87
2019-02-18T23:29:21.726Z,62.98
2019-02-18T23:31:57.174Z,63.03
2019-02-18T23:34:30.918Z,63.29
2019-02-18T23:37:04.078Z,63.61
2019-02-18T23:39:38.491Z,64.00
2019-02-18T23:42:12.545Z,64.08
2019-02-18T23:44:46.558Z,64.38
2019-02-18T23:47:19.098Z,64.53
2019-02-18T23:49:52.532Z,64.61
2019-02-18T23:52:26.671Z,64.60
2019-02-18T23:55:00.882Z,64.69
2019-02-18T23:57:33.596Z,64.76
